createdAt,value
2022-11-23T00:00:33.449Z,92.30
2022-11-23T00:03:01.429Z,92.41
2022-11-23T00:05:30.170Z,92.65
2022-11-23T00:07:59.026Z,92.33
2022-11-23T00:10:26.543Z,92.50
2022-11-23T00:12:54.067Z,92.75
2022-11-23T00:15:21.564Z,91.80
2022-11-23T00:17:49.127Z,92.62
2022-11-23T00:20:17.205Z,92.30
2022-11-23T00:22:44.679Z,92.73
2022-11-23T00:25:13.567Z,92.81
2022-11-23T00:27:41.066Z,92.68
2022-11-23T00:30:09.956Z,92.75
2022-11-23T00:32:37.493Z,92.69
2022-11-23T00:35:05.667Z,92.62
2022-11-23T00:37:33.127Z,92.36
2022-11-23T00:40:00.620Z,92.27
2022-11-23T00:42:32.593Z,91.97
2022-11-23T00:45:04.707Z,91.69
2022-11-23T00:47:32.242Z,91.88
2022-11-23T00:49:59.806Z,91.81
2022-11-23T00:52:27.309Z,91.53
2022-11-23T00:54:54.820Z,91.79
2022-11-23T00:57:22.313Z,91.07
2022-11-23T00:59:51.142Z,91.75
2022-11-23T01:02:18.637Z,92.13
2022-11-23T01:04:46.118Z,92.24
2022-11-23T01:07:13.654Z,92.26
2022-11-23T01:09:41.189Z,92.60
2022-11-23T01:12:08.710Z,92.57
2022-11-23T01:14:36.232Z,92.34
2022-11-23T01:17:05.064Z,92.50
2022-11-23T01:19:32.686Z,92.72
2022-11-23T01:22:00.328Z,92.41
2022-11-23T01:24:27.836Z,92.81
2022-11-23T01:26:56.244Z,92.80
2022-11-23T01:29:24.264Z,93.10
2022-11-23T01:31:51.763Z,93.35
2022-11-23T01:34:20.604Z,93.03
2022-11-23T01:36:48.304Z,92.97
2022-11-23T01:39:15.804Z,93.49
2022-11-23T01:41:44.884Z,93.19
2022-11-23T01:44:28.415Z,92.54
2022-11-23T01:46:56.640Z,92.68
2022-11-23T01:49:26.081Z,92.78
2022-11-23T01:51:55.467Z,92.96
2022-11-23T01:54:26.355Z,92.56
2022-11-23T01:56:56.054Z,92.56
2022-11-23T01:59:24.490Z,92.08
2022-11-23T02:01:52.022Z,92.46
2022-11-23T02:04:23.451Z,92.33
2022-11-23T02:06:53.578Z,91.77
2022-11-23T02:09:21.142Z,92.46
2022-11-23T02:11:48.633Z,91.99
2022-11-23T02:14:20.477Z,92.18
2022-11-23T02:16:50.841Z,91.70
2022-11-23T02:19:22.631Z,91.49
2022-11-23T02:21:54.234Z,91.19
2022-11-23T02:24:26.583Z,91.70
2022-11-23T02:26:56.011Z,91.58
2022-11-23T02:29:25.147Z,92.19
2022-11-23T02:31:52.932Z,91.31
2022-11-23T02:34:20.775Z,91.67
2022-11-23T02:36:50.407Z,91.59
2022-11-23T02:39:20.366Z,91.31
2022-11-23T02:41:49.464Z,91.27
2022-11-23T02:44:26.895Z,91.13
2022-11-23T02:46:55.070Z,91.27
2022-11-23T02:49:22.620Z,91.66
2022-11-23T02:51:50.127Z,91.13
2022-11-23T02:54:17.655Z,91.16
2022-11-23T02:56:45.142Z,91.71
2022-11-23T02:59:12.655Z,91.56
2022-11-23T03:01:41.513Z,91.28
2022-11-23T03:04:09.573Z,91.16
2022-11-23T03:06:37.509Z,91.94
2022-11-23T03:09:05.733Z,91.25
2022-11-23T03:11:33.297Z,91.42
2022-11-23T03:14:01.059Z,91.33
2022-11-23T03:16:28.544Z,90.84
2022-11-23T03:18:57.380Z,90.85
2022-11-23T03:21:24.909Z,90.92
2022-11-23T03:23:52.416Z,90.91
2022-11-23T03:26:19.949Z,91.26
2022-11-23T03:28:47.470Z,91.67
2022-11-23T03:31:14.998Z,91.45
2022-11-23T03:33:42.547Z,91.29
2022-11-23T03:36:11.704Z,91.93
2022-11-23T03:38:39.178Z,91.48
2022-11-23T03:41:06.671Z,91.50
2022-11-23T03:43:34.198Z,91.76
2022-11-23T03:46:01.673Z,91.79
2022-11-23T03:48:29.174Z,91.70
2022-11-23T03:50:56.668Z,91.78
2022-11-23T03:53:25.541Z,91.33
2022-11-23T03:55:55.299Z,91.52
2022-11-23T03:58:22.854Z,91.77
2022-11-23T04:00:50.576Z,91.36
2022-11-23T04:03:18.118Z,92.20
2022-11-23T04:05:45.688Z,92.23
2022-11-23T04:08:13.349Z,92.08
2022-11-23T04:10:42.148Z,92.02
2022-11-23T04:13:09.685Z,92.29
2022-11-23T04:15:37.179Z,92.03
2022-11-23T04:18:04.911Z,91.96
2022-11-23T04:20:32.394Z,92.69
2022-11-23T04:22:59.876Z,92.59
2022-11-23T04:25:27.388Z,92.22
2022-11-23T04:27:56.276Z,92.45
2022-11-23T04:30:23.847Z,92.26
2022-11-23T04:32:51.343Z,92.46
2022-11-23T04:35:19.618Z,92.55
2022-11-23T04:37:47.102Z,92.32
2022-11-23T04:40:15.151Z,92.19
2022-11-23T04:42:42.723Z,92.36
2022-11-23T04:45:12.394Z,91.99
2022-11-23T04:47:39.890Z,92.33
2022-11-23T04:50:07.989Z,92.43
2022-11-23T04:52:35.540Z,92.16
2022-11-23T04:55:03.016Z,91.73
2022-11-23T04:57:30.486Z,91.85
2022-11-23T04:59:57.942Z,92.14
2022-11-23T05:02:26.817Z,92.20
2022-11-23T05:04:54.276Z,91.92
2022-11-23T05:07:21.820Z,92.00
2022-11-23T05:09:49.331Z,92.64
2022-11-23T05:12:16.839Z,92.57
2022-11-23T05:14:44.321Z,92.29
2022-11-23T05:17:12.221Z,92.59
2022-11-23T05:19:41.036Z,92.39
2022-11-23T05:22:08.574Z,92.62
2022-11-23T05:24:36.059Z,92.58
2022-11-23T05:27:03.596Z,92.64
2022-11-23T05:29:31.393Z,92.75
2022-11-23T05:31:59.121Z,93.08
2022-11-23T05:34:26.602Z,92.36
2022-11-23T05:36:55.436Z,92.21
2022-11-23T05:39:22.927Z,91.82
2022-11-23T05:41:50.404Z,91.59
2022-11-23T05:44:17.902Z,91.99
2022-11-23T05:46:45.414Z,91.83
2022-11-23T05:49:13.196Z,92.23
2022-11-23T05:51:40.682Z,92.27
2022-11-23T05:54:09.614Z,91.94
2022-11-23T05:56:40.190Z,92.61
2022-11-23T05:59:08.045Z,92.82
2022-11-23T06:01:35.670Z,92.69
2022-11-23T06:04:03.237Z,92.36
2022-11-23T06:06:30.812Z,92.65
2022-11-23T06:08:58.317Z,92.47
2022-11-23T06:11:27.174Z,92.46
2022-11-23T06:13:54.673Z,92.25
2022-11-23T06:16:22.159Z,92.38
2022-11-23T06:18:49.631Z,92.63
2022-11-23T06:21:17.143Z,92.69
2022-11-23T06:23:44.684Z,93.27
2022-11-23T06:26:12.200Z,92.71
2022-11-23T06:28:41.213Z,93.42
2022-11-23T06:31:08.902Z,93.66
2022-11-23T06:33:36.434Z,93.67
2022-11-23T06:36:04.783Z,93.07
2022-11-23T06:38:32.477Z,93.54
2022-11-23T06:41:00.730Z,93.11
2022-11-23T06:43:28.585Z,93.10
2022-11-23T06:45:57.715Z,93.06
2022-11-23T06:48:25.245Z,92.83
2022-11-23T06:50:52.784Z,92.92
2022-11-23T06:53:20.323Z,93.02
2022-11-23T06:55:47.827Z,92.46
2022-11-23T06:58:15.379Z,92.77
2022-11-23T07:00:42.941Z,92.21
2022-11-23T07:03:19.740Z,92.47
2022-11-23T07:05:47.437Z,92.32
2022-11-23T07:08:15.153Z,92.49
2022-11-23T07:10:42.629Z,92.36
2022-11-23T07:13:11.548Z,92.85
2022-11-23T07:15:39.606Z,93.00
2022-11-23T07:18:07.791Z,93.18
2022-11-23T07:20:36.701Z,93.29
2022-11-23T07:23:06.214Z,93.30
2022-11-23T07:25:35.563Z,93.65
2022-11-23T07:28:04.042Z,93.54
2022-11-23T07:30:32.641Z,93.66
2022-11-23T07:33:00.609Z,93.42
2022-11-23T07:35:28.316Z,93.66
2022-11-23T07:37:57.161Z,93.21
2022-11-23T07:40:24.671Z,93.09
2022-11-23T07:42:52.231Z,93.27
2022-11-23T07:45:19.928Z,93.21
2022-11-23T07:47:47.521Z,93.47
2022-11-23T07:50:15.769Z,93.01
2022-11-23T07:52:43.287Z,93.14
2022-11-23T07:55:12.196Z,93.33
2022-11-23T07:57:39.684Z,93.80
2022-11-23T08:00:08.894Z,93.09
2022-11-23T08:02:36.512Z,93.11
2022-11-23T08:05:04.173Z,92.89
2022-11-23T08:07:31.775Z,92.90
2022-11-23T08:09:59.347Z,92.46
2022-11-23T08:12:28.231Z,91.58
2022-11-23T08:14:55.743Z,91.63
2022-11-23T08:17:23.238Z,92.03
2022-11-23T08:19:50.758Z,91.40
2022-11-23T08:22:18.311Z,91.62
2022-11-23T08:24:47.890Z,91.04
2022-11-23T08:27:15.380Z,91.68
2022-11-23T08:29:44.274Z,91.60
2022-11-23T08:32:12.660Z,91.67
2022-11-23T08:34:40.134Z,91.65
2022-11-23T08:37:07.624Z,91.21
2022-11-23T08:39:35.128Z,91.36
2022-11-23T08:42:02.611Z,91.05
2022-11-23T08:44:30.680Z,90.63
2022-11-23T08:46:59.738Z,90.38
2022-11-23T08:49:27.291Z,90.62
2022-11-23T08:51:55.432Z,90.81
2022-11-23T08:54:24.205Z,90.42
2022-11-23T08:56:51.943Z,90.15
2022-11-23T08:59:20.285Z,89.61
2022-11-23T09:01:47.895Z,89.78
2022-11-23T09:04:20.713Z,89.43
2022-11-23T09:06:48.632Z,89.05
2022-11-23T09:09:16.156Z,89.40
2022-11-23T09:11:43.627Z,88.72
2022-11-23T09:14:11.161Z,88.81
2022-11-23T09:16:38.784Z,88.40
2022-11-23T09:19:07.185Z,88.69
2022-11-23T09:21:39.080Z,88.66
2022-11-23T09:24:07.430Z,87.93
2022-11-23T09:26:35.070Z,88.32
2022-11-23T09:29:02.618Z,87.53
2022-11-23T09:31:30.100Z,87.88
2022-11-23T09:33:57.614Z,87.61
2022-11-23T09:36:25.336Z,87.64
2022-11-23T09:38:57.049Z,87.90
2022-11-23T09:41:44.240Z,86.78
2022-11-23T09:44:18.329Z,87.80
2022-11-23T09:46:58.986Z,87.17
2022-11-23T09:49:30.617Z,87.04
2022-11-23T09:51:58.456Z,87.24
2022-11-23T09:54:31.801Z,87.00
2022-11-23T09:57:01.946Z,87.25
2022-11-23T09:59:39.516Z,87.16
2022-11-23T10:02:07.292Z,86.56
2022-11-23T10:04:35.885Z,86.18
2022-11-23T10:07:13.600Z,86.26
2022-11-23T10:09:50.323Z,86.55
2022-11-23T10:12:38.636Z,86.34
2022-11-23T10:15:14.040Z,85.94
2022-11-23T10:17:54.544Z,86.33
2022-11-23T10:20:35.173Z,85.93
2022-11-23T10:23:04.366Z,85.57
2022-11-23T10:25:39.621Z,85.99
2022-11-23T10:28:13.862Z,84.38
2022-11-23T10:30:42.010Z,84.35
2022-11-23T10:33:20.565Z,83.79
2022-11-23T10:35:48.176Z,84.07
2022-11-23T10:38:19.445Z,84.17
2022-11-23T10:40:59.353Z,83.68
2022-11-23T10:43:29.056Z,83.79
2022-11-23T10:46:29.264Z,82.54
2022-11-23T10:48:57.332Z,83.03
2022-11-23T10:51:29.383Z,82.82
2022-11-23T10:54:04.894Z,82.61
2022-11-23T10:56:34.497Z,82.82
2022-11-23T10:59:02.114Z,82.58
2022-11-23T11:01:30.573Z,80.83
2022-11-23T11:04:03.784Z,80.28
2022-11-23T11:06:34.076Z,79.54
2022-11-23T11:09:03.916Z,79.94
2022-11-23T11:11:34.737Z,80.07
2022-11-23T11:14:04.843Z,79.91
2022-11-23T11:16:33.802Z,78.91
2022-11-23T11:19:27.127Z,78.91
2022-11-23T11:21:54.978Z,79.53
2022-11-23T11:24:26.671Z,79.81
2022-11-23T11:26:59.853Z,79.60
2022-11-23T11:29:38.716Z,79.51
2022-11-23T11:32:10.206Z,77.65
2022-11-23T11:34:43.793Z,77.98
2022-11-23T11:37:15.039Z,76.99
2022-11-23T11:39:46.262Z,77.27
2022-11-23T11:42:19.469Z,79.16
2022-11-23T11:44:48.135Z,76.12
2022-11-23T11:47:24.455Z,77.00
2022-11-23T11:49:55.555Z,76.01
2022-11-23T11:52:26.502Z,75.51
2022-11-23T11:54:57.573Z,76.16
2022-11-23T11:57:29.210Z,75.83
2022-11-23T11:59:58.308Z,76.28
2022-11-23T12:02:28.014Z,76.09
2022-11-23T12:05:01.391Z,77.51
2022-11-23T12:07:31.925Z,76.49
2022-11-23T12:10:05.363Z,76.25
2022-11-23T12:12:36.330Z,75.15
2022-11-23T12:15:15.282Z,75.28
2022-11-23T12:18:14.597Z,74.84
2022-11-23T12:20:47.753Z,75.06
2022-11-23T12:23:24.749Z,74.91
2022-11-23T12:25:58.499Z,74.68
2022-11-23T12:28:44.300Z,74.44
2022-11-23T12:31:19.200Z,73.50
2022-11-23T12:34:08.130Z,74.48
2022-11-23T12:36:53.362Z,73.73
2022-11-23T12:39:45.971Z,74.12
2022-11-23T12:42:17.092Z,73.75
2022-11-23T12:45:01.064Z,73.82
2022-11-23T12:47:39.932Z,72.71
2022-11-23T12:50:18.609Z,72.06
2022-11-23T12:53:00.466Z,73.10
2022-11-23T12:55:33.916Z,73.69
2022-11-23T12:58:05.473Z,73.30
2022-11-23T13:00:36.222Z,70.64
2022-11-23T13:03:40.153Z,70.25
2022-11-23T13:07:05.672Z,69.40
2022-11-23T13:09:43.005Z,69.79
2022-11-23T13:12:34.656Z,70.09
2022-11-23T13:15:17.403Z,69.59
2022-11-23T13:17:51.310Z,69.30
2022-11-23T13:20:29.732Z,69.15
2022-11-23T13:22:58.212Z,69.52
2022-11-23T13:25:27.889Z,68.57
2022-11-23T13:27:57.634Z,68.33
2022-11-23T13:30:45.689Z,68.65
2022-11-23T13:33:38.229Z,68.20
2022-11-23T13:36:11.437Z,67.90
2022-11-23T13:38:43.297Z,66.68
2022-11-23T13:41:55.360Z,66.97
2022-11-23T13:44:25.610Z,67.83
2022-11-23T13:47:04.571Z,67.42
2022-11-23T13:49:36.588Z,66.81
2022-11-23T13:52:27.246Z,67.32
2022-11-23T13:54:56.993Z,67.78
2022-11-23T13:57:24.614Z,67.34
2022-11-23T13:59:52.125Z,68.57
2022-11-23T14:02:29.136Z,67.11
2022-11-23T14:05:45.753Z,66.78
2022-11-23T14:08:15.251Z,67.82
2022-11-23T14:10:42.760Z,67.24
2022-11-23T14:13:15.505Z,67.82
2022-11-23T14:15:48.271Z,67.16
2022-11-23T14:18:32.330Z,67.45
2022-11-23T14:21:09.320Z,69.02
2022-11-23T14:24:23.165Z,68.96
2022-11-23T14:27:04.138Z,68.94
2022-11-23T14:30:05.567Z,69.02
2022-11-23T14:32:46.387Z,68.73
2022-11-23T14:35:22.039Z,70.16
2022-11-23T14:38:01.402Z,70.60
2022-11-23T14:40:31.907Z,71.14
2022-11-23T14:43:01.453Z,70.54
2022-11-23T14:45:31.049Z,70.44
2022-11-23T14:47:58.630Z,70.87
2022-11-23T14:50:28.333Z,70.91
2022-11-23T14:52:57.353Z,70.85
2022-11-23T14:55:26.753Z,71.21
2022-11-23T14:58:00.526Z,72.05
2022-11-23T15:00:32.143Z,72.26
2022-11-23T15:03:15.373Z,72.33
2022-11-23T15:05:52.748Z,72.65
2022-11-23T15:08:22.993Z,72.10
2022-11-23T15:10:53.420Z,73.51
2022-11-23T15:13:24.392Z,73.95
2022-11-23T15:15:53.627Z,73.91
2022-11-23T15:18:28.470Z,73.91
2022-11-23T15:20:56.004Z,73.87
2022-11-23T15:23:29.096Z,74.13
2022-11-23T15:25:57.838Z,74.86
2022-11-23T15:28:28.319Z,75.58
2022-11-23T15:30:58.656Z,75.07
2022-11-23T15:33:26.850Z,75.69
2022-11-23T15:35:54.938Z,76.84
2022-11-23T15:38:24.121Z,77.20
2022-11-23T15:40:52.206Z,77.51
2022-11-23T15:43:20.721Z,77.85
2022-11-23T15:46:06.755Z,78.31
2022-11-23T15:48:37.009Z,77.91
2022-11-23T15:51:06.129Z,78.25
2022-11-23T15:53:36.984Z,78.51
2022-11-23T15:56:06.667Z,78.80
2022-11-23T15:58:35.106Z,79.74
2022-11-23T16:01:08.568Z,80.42
2022-11-23T16:03:40.792Z,80.51
2022-11-23T16:06:19.091Z,81.22
2022-11-23T16:08:46.805Z,80.82
2022-11-23T16:11:30.219Z,80.70
2022-11-23T16:14:15.700Z,80.36
2022-11-23T16:16:46.526Z,80.98
2022-11-23T16:19:22.803Z,81.27
2022-11-23T16:21:50.963Z,81.59
2022-11-23T16:24:21.315Z,81.79
2022-11-23T16:26:48.953Z,81.95
2022-11-23T16:29:21.882Z,81.96
2022-11-23T16:32:01.480Z,81.86
2022-11-23T16:34:29.269Z,81.47
2022-11-23T16:36:59.119Z,81.27
2022-11-23T16:39:27.529Z,81.20
2022-11-23T16:41:55.195Z,81.47
2022-11-23T16:44:22.702Z,82.15
2022-11-23T16:46:50.563Z,82.46
2022-11-23T16:49:20.747Z,82.60
2022-11-23T16:51:56.291Z,82.87
2022-11-23T16:54:25.304Z,82.63
2022-11-23T16:56:53.172Z,82.81
2022-11-23T16:59:22.183Z,82.79
2022-11-23T17:01:56.620Z,83.27
2022-11-23T17:04:26.680Z,83.34
2022-11-23T17:06:54.220Z,83.27
2022-11-23T17:09:21.692Z,82.89
2022-11-23T17:11:50.217Z,82.37
2022-11-23T17:14:19.267Z,81.67
2022-11-23T17:17:01.793Z,81.91
2022-11-23T17:19:31.193Z,82.38
2022-11-23T17:21:58.883Z,82.25
2022-11-23T17:24:26.391Z,82.61
2022-11-23T17:26:54.869Z,82.25
2022-11-23T17:29:24.030Z,82.02
2022-11-23T17:31:52.057Z,80.90
2022-11-23T17:34:19.644Z,80.62
2022-11-23T17:36:50.782Z,79.57
2022-11-23T17:39:20.492Z,79.68
2022-11-23T17:41:49.016Z,80.40
2022-11-23T17:44:17.488Z,81.11
2022-11-23T17:46:47.380Z,82.56
2022-11-23T17:49:23.218Z,83.74
2022-11-23T17:51:54.485Z,85.39
2022-11-23T17:54:36.432Z,85.66
2022-11-23T17:57:04.336Z,87.10
2022-11-23T17:59:32.591Z,88.68
2022-11-23T18:02:00.501Z,89.87
2022-11-23T18:04:28.426Z,90.63
2022-11-23T18:06:57.313Z,92.01
2022-11-23T18:09:24.840Z,92.57
2022-11-23T18:11:52.400Z,92.82
2022-11-23T18:14:21.789Z,93.75
2022-11-23T18:16:49.585Z,93.84
2022-11-23T18:19:17.673Z,93.89
2022-11-23T18:21:45.224Z,93.99
2022-11-23T18:24:14.614Z,94.66
2022-11-23T18:26:42.627Z,95.16
2022-11-23T18:29:28.805Z,95.81
2022-11-23T18:31:56.570Z,95.99
2022-11-23T18:34:24.409Z,96.50
2022-11-23T18:36:52.142Z,96.30
2022-11-23T18:39:21.255Z,96.40
2022-11-23T18:41:48.852Z,96.37
2022-11-23T18:44:16.732Z,96.02
2022-11-23T18:46:45.852Z,96.07
2022-11-23T18:49:14.111Z,95.78
2022-11-23T18:51:42.959Z,95.28
2022-11-23T18:54:10.648Z,95.35
2022-11-23T18:56:43.078Z,95.50
2022-11-23T18:59:28.739Z,95.06
2022-11-23T19:01:58.744Z,95.35
2022-11-23T19:04:26.755Z,95.72
2022-11-23T19:06:56.118Z,95.96
2022-11-23T19:09:23.960Z,95.83
2022-11-23T19:11:55.415Z,95.49
2022-11-23T19:14:27.248Z,95.64
2022-11-23T19:16:54.874Z,95.66
2022-11-23T19:19:22.352Z,95.98
2022-11-23T19:21:49.797Z,96.13
2022-11-23T19:24:17.389Z,96.58
2022-11-23T19:26:45.205Z,96.00
2022-11-23T19:29:14.623Z,96.46
2022-11-23T19:31:42.521Z,96.04
2022-11-23T19:34:10.764Z,96.42
2022-11-23T19:36:41.138Z,96.89
2022-11-23T19:39:10.047Z,97.40
2022-11-23T19:41:42.085Z,97.17
2022-11-23T19:44:11.797Z,97.02
2022-11-23T19:46:42.959Z,96.82
2022-11-23T19:49:10.793Z,96.69
2022-11-23T19:51:40.167Z,96.73
2022-11-23T19:54:09.824Z,96.56
2022-11-23T19:56:39.833Z,96.55
2022-11-23T19:59:09.617Z,96.79
2022-11-23T20:01:37.748Z,96.73
2022-11-23T20:04:09.712Z,96.58
2022-11-23T20:06:38.619Z,96.87
2022-11-23T20:09:07.822Z,96.75
2022-11-23T20:11:36.252Z,96.61
2022-11-23T20:14:05.252Z,96.85
2022-11-23T20:16:33.745Z,96.56
2022-11-23T20:19:02.635Z,96.59
2022-11-23T20:21:32.947Z,96.68
2022-11-23T20:24:06.320Z,97.00
2022-11-23T20:26:34.641Z,97.41
2022-11-23T20:29:02.222Z,97.21
2022-11-23T20:31:31.630Z,97.15
2022-11-23T20:34:06.443Z,96.56
2022-11-23T20:36:39.052Z,96.48
2022-11-23T20:39:08.663Z,96.28
2022-11-23T20:41:38.045Z,96.36
2022-11-23T20:44:07.272Z,96.29
2022-11-23T20:49:25.170Z,96.15
2022-11-23T20:51:54.351Z,96.32
2022-11-23T20:54:22.136Z,97.16
2022-11-23T20:56:54.012Z,96.74
2022-11-23T20:59:23.716Z,96.93
2022-11-23T21:01:51.466Z,96.41
2022-11-23T21:04:19.235Z,96.69
2022-11-23T21:06:47.020Z,96.57
2022-11-23T21:09:16.991Z,96.27
2022-11-23T21:12:02.092Z,96.66
2022-11-23T21:14:32.613Z,96.33
2022-11-23T21:17:00.995Z,97.10
2022-11-23T21:19:30.308Z,96.74
2022-11-23T21:22:05.572Z,96.52
2022-11-23T21:24:36.268Z,96.57
2022-11-23T21:27:05.341Z,96.35
2022-11-23T21:29:35.009Z,96.38
2022-11-23T21:32:02.692Z,96.59
2022-11-23T21:34:33.147Z,96.52
2022-11-23T21:37:01.667Z,95.82
2022-11-23T21:39:31.021Z,97.09
2022-11-23T21:42:00.135Z,97.36
2022-11-23T21:44:28.138Z,97.59
2022-11-23T21:46:55.897Z,96.88
2022-11-23T21:49:23.753Z,96.61
2022-11-23T21:51:51.461Z,96.30
2022-11-23T21:54:20.976Z,96.54
2022-11-23T21:56:48.928Z,96.13
2022-11-23T21:59:23.275Z,96.19
2022-11-23T22:01:52.366Z,96.00
2022-11-23T22:04:42.751Z,95.95
2022-11-23T22:07:08.447Z,95.51
2022-11-23T22:09:37.999Z,95.63
2022-11-23T22:12:06.392Z,95.86
2022-11-23T22:14:35.833Z,95.53
2022-11-23T22:17:04.285Z,95.49
2022-11-23T22:19:36.131Z,95.79
2022-11-23T22:22:06.571Z,96.05
2022-11-23T22:24:35.665Z,95.77
2022-11-23T22:27:03.582Z,95.57
2022-11-23T22:29:31.226Z,96.17
2022-11-23T22:32:01.398Z,96.04
2022-11-23T22:34:30.055Z,96.82
2022-11-23T22:36:58.106Z,96.64
2022-11-23T22:39:27.113Z,96.97
2022-11-23T22:41:56.855Z,96.66
2022-11-23T22:44:27.254Z,96.89
2022-11-23T22:46:54.878Z,96.67
2022-11-23T22:49:25.366Z,96.50
2022-11-23T22:51:53.028Z,96.97
2022-11-23T22:54:20.698Z,97.29
2022-11-23T22:56:48.761Z,97.02
2022-11-23T22:59:16.362Z,96.48
2022-11-23T23:01:49.194Z,96.63
2022-11-23T23:04:18.576Z,96.55
2022-11-23T23:06:50.807Z,96.49
2022-11-23T23:09:20.066Z,96.81
2022-11-23T23:11:49.007Z,96.40
2022-11-23T23:14:19.593Z,96.68
2022-11-23T23:16:47.354Z,96.33
2022-11-23T23:19:15.075Z,96.79
2022-11-23T23:21:42.812Z,96.75
2022-11-23T23:24:12.006Z,96.66
2022-11-23T23:26:39.532Z,95.91
2022-11-23T23:29:07.026Z,96.51
2022-11-23T23:31:34.576Z,96.05
2022-11-23T23:34:02.298Z,96.05
2022-11-23T23:36:30.576Z,95.96
2022-11-23T23:38:58.529Z,95.67
2022-11-23T23:41:27.426Z,95.77
2022-11-23T23:43:54.914Z,95.13
2022-11-23T23:46:22.500Z,95.47
2022-11-23T23:48:50.019Z,95.85
2022-11-23T23:51:19.083Z,96.25
2022-11-23T23:53:47.029Z,96.11
2022-11-23T23:56:17.019Z,95.55
2022-11-23T23:58:46.140Z,95.50
